Terminal Aerodrome Forecast
Issued by NWS

Home | Current Version | Previous Version | Text Only | Print | Product List | Glossary On
Versions: 1 2 3 4 5 6 7 8 9 10 11 12 13 14 15 16 17 18 19
705
FTUS41 KAKQ 201909 AAA
TAFPHF
TAF AMD
KPHF 201909Z 2019/2118 07005KT 3SM -RA BR OVC030
      TEMPO 2019/2022 1 1/2SM -RA BR OVC015
     FM202300 09004KT P6SM OVC020
     FM210200 00000KT 5SM BR OVC035
     FM210700 00000KT 3SM -DZ BR OVC015
     FM210900 00000KT 1SM -DZ BR BKN005
     FM211500 VRB03KT P6SM BKN020=

USA.gov is the U.S. government's official web portal to all federal, state and local government web resources and services.